Wetterdaten: Woche 19.02.24 - 25.02.24 (KW8)
Datum Zeit Temp. I. Temp. A. Feuchte I. Feuchte A. Luftdruck Regen Wind Richtung Sonnenschein Solar Taupunkt Windchill Windböen
19.02.2024 00:00 21,4 °C 9,4 °C 55 % 87 % 1017,6 hPa 0,0 l/m² 17,4 km/h (3 Bft) S-SW 0,00 h 0 W/m² 7,3 °C 3,5 °C 23,0 km/h (4 Bft)
19.02.2024 01:00 21,3 °C 9,3 °C 55 % 87 % 1017,0 hPa 0,0 l/m² 15,9 km/h (3 Bft) SW 0,00 h 0 W/m² 7,1 °C 4,0 °C 21,9 km/h (4 Bft)
19.02.2024 02:00 21,3 °C 9,1 °C 55 % 87 % 1016,3 hPa 0,0 l/m² 24,6 km/h (4 Bft) SW 0,00 h 0 W/m² 7,0 °C 0,8 °C 33,5 km/h (5 Bft)
19.02.2024 03:00 21,3 °C 8,8 °C 55 % 87 % 1017,0 hPa 0,0 l/m² 21,4 km/h (4 Bft) W-SW 0,00 h 0 W/m² 6,7 °C 1,4 °C 29,0 km/h (5 Bft)
19.02.2024 04:00 21,3 °C 8,1 °C 55 % 85 % 1017,8 hPa 0,2 l/m² 22,6 km/h (4 Bft) W 0,00 h 0 W/m² 5,7 °C 0,0 °C 31,8 km/h (5 Bft)
19.02.2024 05:00 21,2 °C 7,1 °C 55 % 89 % 1018,6 hPa 1,6 l/m² 17,6 km/h (3 Bft) W-SW 0,00 h 0 W/m² 5,5 °C 0,7 °C 23,7 km/h (4 Bft)
19.02.2024 06:00 21,3 °C 7,4 °C 55 % 90 % 1019,3 hPa 0,2 l/m² 24,7 km/h (4 Bft) W 0,00 h 0 W/m² 5,9 °C -1,5 °C 34,4 km/h (5 Bft)
19.02.2024 07:00 21,3 °C 7,5 °C 54 % 86 % 1020,1 hPa 0,0 l/m² 29,0 km/h (5 Bft) W 0,00 h 16 W/m² 5,4 °C -2,6 °C 41,5 km/h (6 Bft)
19.02.2024 08:00 21,2 °C 7,4 °C 54 % 86 % 1021,2 hPa 0,0 l/m² 25,6 km/h (4 Bft) W 0,02 h 24 W/m² 5,2 °C -1,7 °C 35,7 km/h (5 Bft)
19.02.2024 09:00 21,3 °C 8,3 °C 54 % 84 % 1021,8 hPa 0,0 l/m² 27,1 km/h (5 Bft) W 1,00 h 121 W/m² 5,7 °C -1,0 °C 38,1 km/h (6 Bft)
19.02.2024 10:00 21,7 °C 9,3 °C 53 % 81 % 1022,6 hPa 0,0 l/m² 27,6 km/h (5 Bft) W 1,00 h 214 W/m² 6,3 °C 0,3 °C 38,4 km/h (6 Bft)
19.02.2024 11:00 21,7 °C 9,8 °C 53 % 81 % 1023,1 hPa 0,0 l/m² 23,9 km/h (4 Bft) W 1,00 h 185 W/m² 6,6 °C 2,0 °C 34,4 km/h (5 Bft)
19.02.2024 12:00 21,7 °C 10,6 °C 53 % 78 % 1022,9 hPa 0,0 l/m² 19,8 km/h (4 Bft) W 1,00 h 197 W/m² 6,9 °C 4,2 °C 27,3 km/h (5 Bft)
19.02.2024 13:00 21,5 °C 10,4 °C 53 % 81 % 1022,9 hPa 0,0 l/m² 18,4 km/h (3 Bft) W 1,00 h 163 W/m² 7,2 °C 4,5 °C 25,1 km/h (4 Bft)
19.02.2024 14:00 21,5 °C 10,6 °C 53 % 83 % 1022,8 hPa 0,0 l/m² 14,1 km/h (3 Bft) W-SW 0,95 h 218 W/m² 7,9 °C 6,3 °C 19,3 km/h (3 Bft)
19.02.2024 15:00 21,7 °C 10,8 °C 53 % 79 % 1022,7 hPa 0,0 l/m² 18,6 km/h (3 Bft) W-SW 1,00 h 137 W/m² 7,3 °C 4,9 °C 24,4 km/h (4 Bft)
19.02.2024 16:00 21,6 °C 10,0 °C 53 % 83 % 1022,7 hPa 0,0 l/m² 12,4 km/h (2 Bft) SW 0,40 h 40 W/m² 7,3 °C 6,6 °C 16,8 km/h (3 Bft)
19.02.2024 17:00 21,4 °C 9,1 °C 53 % 86 % 1022,5 hPa 0,0 l/m² 10,3 km/h (2 Bft) SW 0,00 h 8 W/m² 6,8 °C 6,5 °C 14,6 km/h (3 Bft)
19.02.2024 18:00 21,4 °C 8,6 °C 54 % 88 % 1022,5 hPa 0,0 l/m² 12,9 km/h (3 Bft) SW 0,00 h 0 W/m² 6,7 °C 4,5 °C 16,9 km/h (3 Bft)
19.02.2024 19:00 21,5 °C 8,8 °C 56 % 88 % 1022,6 hPa 0,0 l/m² 12,1 km/h (2 Bft) SW 0,00 h 0 W/m² 6,9 °C 5,2 °C 17,2 km/h (3 Bft)
19.02.2024 20:00 21,5 °C 8,7 °C 55 % 88 % 1022,4 hPa 0,0 l/m² 9,6 km/h (2 Bft) SW 0,00 h 0 W/m² 6,8 °C 6,4 °C 14,1 km/h (3 Bft)
19.02.2024 21:00 21,6 °C 8,8 °C 55 % 88 % 1022,4 hPa 0,0 l/m² 7,9 km/h (2 Bft) SW 0,00 h 0 W/m² 6,9 °C 7,5 °C 11,1 km/h (2 Bft)
19.02.2024 22:00 21,4 °C 8,7 °C 55 % 89 % 1022,4 hPa 0,0 l/m² 10,5 km/h (2 Bft) SW 0,00 h 0 W/m² 7,0 °C 5,9 °C 14,3 km/h (3 Bft)
19.02.2024 23:00 21,3 °C 8,5 °C 54 % 90 % 1022,0 hPa 0,0 l/m² 10,1 km/h (2 Bft) SW 0,00 h 0 W/m² 6,9 °C 6,0 °C 13,9 km/h (3 Bft)
20.02.2024 00:00 21,3 °C 8,5 °C 54 % 89 % 1022,0 hPa 0,0 l/m² 9,7 km/h (2 Bft) W-SW 0,00 h 0 W/m² 6,8 °C 6,2 °C 14,2 km/h (3 Bft)
20.02.2024 01:00 21,3 °C 8,3 °C 54 % 88 % 1022,0 hPa 0,0 l/m² 10,3 km/h (2 Bft) W-SW 0,00 h 0 W/m² 6,4 °C 5,6 °C 14,8 km/h (3 Bft)
20.02.2024 02:00 21,2 °C 8,2 °C 54 % 88 % 1022,1 hPa 0,0 l/m² 7,4 km/h (2 Bft) W-SW 0,00 h 0 W/m² 6,3 °C 7,3 °C 11,5 km/h (2 Bft)
20.02.2024 03:00 21,3 °C 8,0 °C 54 % 89 % 1022,2 hPa 0,0 l/m² 5,5 km/h (2 Bft) W-SW 0,00 h 0 W/m² 6,2 °C 7,8 °C 7,9 km/h (2 Bft)
20.02.2024 04:00 21,3 °C 7,9 °C 54 % 88 % 1022,7 hPa 0,0 l/m² 12,7 km/h (3 Bft) W 0,00 h 0 W/m² 6,1 °C 3,9 °C 18,2 km/h (3 Bft)
20.02.2024 05:00 21,3 °C 7,8 °C 54 % 86 % 1023,2 hPa 0,0 l/m² 12,2 km/h (2 Bft) W 0,00 h 0 W/m² 5,6 °C 3,9 °C 18,0 km/h (3 Bft)
20.02.2024 06:00 21,3 °C 7,4 °C 55 % 87 % 1023,7 hPa 0,0 l/m² 14,3 km/h (3 Bft) W 0,00 h 0 W/m² 5,4 °C 2,3 °C 20,5 km/h (4 Bft)
20.02.2024 07:00 21,3 °C 7,7 °C 55 % 87 % 1024,4 hPa 0,0 l/m² 15,9 km/h (3 Bft) W 0,00 h 10 W/m² 5,6 °C 2,0 °C 22,4 km/h (4 Bft)
20.02.2024 08:00 21,3 °C 7,4 °C 55 % 88 % 1025,2 hPa 0,0 l/m² 16,3 km/h (3 Bft) W 0,50 h 72 W/m² 5,5 °C 1,5 °C 24,0 km/h (4 Bft)
20.02.2024 09:00 21,7 °C 8,6 °C 54 % 79 % 1025,6 hPa 0,0 l/m² 19,9 km/h (4 Bft) W 1,00 h 279 W/m² 5,1 °C 1,6 °C 28,0 km/h (5 Bft)
20.02.2024 10:00 21,9 °C 9,0 °C 54 % 76 % 1025,7 hPa 0,0 l/m² 17,6 km/h (3 Bft) W 1,00 h 223 W/m² 5,0 °C 2,9 °C 24,1 km/h (4 Bft)
20.02.2024 11:00 22,0 °C 9,6 °C 54 % 73 % 1025,8 hPa 0,0 l/m² 17,8 km/h (3 Bft) W 1,00 h 309 W/m² 5,0 °C 3,7 °C 24,2 km/h (4 Bft)
20.02.2024 12:00 22,3 °C 10,4 °C 53 % 70 % 1025,5 hPa 0,0 l/m² 16,9 km/h (3 Bft) W 1,00 h 353 W/m² 5,1 °C 4,9 °C 22,6 km/h (4 Bft)
20.02.2024 13:00 22,3 °C 10,9 °C 51 % 74 % 1025,2 hPa 0,0 l/m² 19,0 km/h (3 Bft) W-SW 1,00 h 364 W/m² 6,4 °C 4,9 °C 24,7 km/h (4 Bft)
20.02.2024 14:00 22,2 °C 10,3 °C 51 % 73 % 1025,1 hPa 0,0 l/m² 22,3 km/h (4 Bft) SW 1,00 h 233 W/m² 5,7 °C 3,0 °C 29,3 km/h (5 Bft)
20.02.2024 15:00 22,0 °C 9,8 °C 52 % 75 % 1024,9 hPa 0,0 l/m² 17,6 km/h (3 Bft) SW 1,00 h 97 W/m² 5,6 °C 3,9 °C 23,1 km/h (4 Bft)
20.02.2024 16:00 21,8 °C 9,4 °C 53 % 78 % 1024,7 hPa 0,0 l/m² 15,0 km/h (3 Bft) W-SW 0,03 h 28 W/m² 5,8 °C 4,5 °C 19,4 km/h (3 Bft)
20.02.2024 17:00 21,6 °C 8,8 °C 52 % 81 % 1024,7 hPa 0,0 l/m² 8,6 km/h (2 Bft) W-SW 0,00 h 8 W/m² 5,7 °C 7,2 °C 11,4 km/h (2 Bft)
20.02.2024 18:00 21,4 °C 8,3 °C 52 % 83 % 1025,0 hPa 0,0 l/m² 4,7 km/h (1 Bft) SW 0,00 h 0 W/m² 5,7 °C 8,2 °C 6,6 km/h (2 Bft)
20.02.2024 19:00 21,4 °C 8,1 °C 54 % 83 % 1024,8 hPa 0,0 l/m² 8,2 km/h (2 Bft) SW 0,00 h 0 W/m² 5,5 °C 6,7 °C 11,2 km/h (2 Bft)
20.02.2024 20:00 21,6 °C 8,6 °C 55 % 82 % 1024,5 hPa 0,0 l/m² 14,5 km/h (3 Bft) SW 0,00 h 0 W/m² 5,6 °C 3,7 °C 19,8 km/h (3 Bft)
20.02.2024 21:00 21,7 °C 8,5 °C 55 % 82 % 1024,1 hPa 0,0 l/m² 16,7 km/h (3 Bft) SW 0,00 h 0 W/m² 5,6 °C 2,7 °C 22,1 km/h (4 Bft)
20.02.2024 22:00 21,7 °C 8,3 °C 54 % 81 % 1023,6 hPa 0,0 l/m² 16,5 km/h (3 Bft) SW 0,00 h 0 W/m² 5,3 °C 2,5 °C 22,3 km/h (4 Bft)
20.02.2024 23:00 21,5 °C 7,9 °C 54 % 82 % 1023,2 hPa 0,0 l/m² 13,3 km/h (3 Bft) SW 0,00 h 0 W/m² 5,0 °C 3,4 °C 18,1 km/h (3 Bft)
21.02.2024 00:00 21,4 °C 8,3 °C 54 % 81 % 1022,7 hPa 0,0 l/m² 16,4 km/h (3 Bft) SW 0,00 h 0 W/m² 5,2 °C 2,5 °C 22,9 km/h (4 Bft)
21.02.2024 01:00 21,4 °C 7,9 °C 53 % 82 % 1022,1 hPa 0,0 l/m² 12,5 km/h (2 Bft) SW 0,00 h 0 W/m² 5,1 °C 4,1 °C 16,8 km/h (3 Bft)
21.02.2024 02:00 21,4 °C 7,9 °C 53 % 82 % 1021,6 hPa 0,0 l/m² 11,1 km/h (2 Bft) S-SW 0,00 h 0 W/m² 5,0 °C 4,7 °C 14,9 km/h (3 Bft)
21.02.2024 03:00 21,3 °C 8,1 °C 54 % 81 % 1021,1 hPa 0,0 l/m² 10,6 km/h (2 Bft) SW 0,00 h 0 W/m² 5,2 °C 5,3 °C 15,2 km/h (3 Bft)
21.02.2024 04:00 21,4 °C 8,0 °C 53 % 83 % 1020,8 hPa 0,0 l/m² 12,1 km/h (2 Bft) W-SW 0,00 h 0 W/m² 5,2 °C 4,2 °C 16,8 km/h (3 Bft)
21.02.2024 05:00 21,4 °C 7,7 °C 53 % 86 % 1020,2 hPa 0,0 l/m² 10,1 km/h (2 Bft) SW 0,00 h 0 W/m² 5,4 °C 5,1 °C 13,7 km/h (3 Bft)
21.02.2024 06:00 21,3 °C 7,5 °C 53 % 85 % 1019,3 hPa 0,0 l/m² 10,5 km/h (2 Bft) S-SW 0,00 h 0 W/m² 5,3 °C 4,6 °C 14,4 km/h (3 Bft)
21.02.2024 07:00 21,3 °C 7,6 °C 53 % 86 % 1019,6 hPa 0,0 l/m² 10,8 km/h (2 Bft) SW 0,00 h 11 W/m² 5,3 °C 4,5 °C 16,1 km/h (3 Bft)
21.02.2024 08:00 21,4 °C 8,2 °C 53 % 84 % 1019,6 hPa 0,0 l/m² 13,6 km/h (3 Bft) SW 0,80 h 126 W/m² 5,7 °C 3,7 °C 18,6 km/h (3 Bft)
21.02.2024 09:00 21,7 °C 9,0 °C 53 % 82 % 1019,2 hPa 0,0 l/m² 17,7 km/h (3 Bft) SW 1,00 h 216 W/m² 6,1 °C 2,9 °C 24,1 km/h (4 Bft)
21.02.2024 10:00 21,8 °C 9,0 °C 51 % 80 % 1019,1 hPa 0,0 l/m² 14,4 km/h (3 Bft) SW 1,00 h 164 W/m² 5,7 °C 4,3 °C 19,4 km/h (3 Bft)
21.02.2024 11:00 22,0 °C 10,4 °C 51 % 74 % 1018,6 hPa 0,0 l/m² 17,4 km/h (3 Bft) SW 1,00 h 390 W/m² 6,1 °C 4,8 °C 23,4 km/h (4 Bft)
21.02.2024 12:00 22,1 °C 10,8 °C 51 % 76 % 1017,4 hPa 0,0 l/m² 18,8 km/h (3 Bft) SW 0,98 h 386 W/m² 6,7 °C 4,9 °C 24,9 km/h (4 Bft)
21.02.2024 13:00 22,0 °C 10,3 °C 52 % 78 % 1016,6 hPa 0,0 l/m² 21,7 km/h (4 Bft) S-SW 1,02 h 303 W/m² 6,7 °C 3,2 °C 28,0 km/h (5 Bft)
21.02.2024 14:00 21,8 °C 10,6 °C 51 % 77 % 1015,6 hPa 0,0 l/m² 17,0 km/h (3 Bft) SW 1,00 h 288 W/m² 6,8 °C 5,2 °C 23,4 km/h (4 Bft)
21.02.2024 15:00 21,7 °C 10,5 °C 52 % 78 % 1014,9 hPa 0,0 l/m² 8,3 km/h (2 Bft) W-SW 1,00 h 128 W/m² 6,8 °C 9,0 °C 11,9 km/h (2 Bft)
21.02.2024 16:00 21,6 °C 9,9 °C 52 % 80 % 1013,4 hPa 0,0 l/m² 4,3 km/h (1 Bft) SW 0,72 h 64 W/m² 6,6 °C 9,8 °C 6,1 km/h (2 Bft)
21.02.2024 17:00 21,5 °C 8,9 °C 50 % 82 % 1012,4 hPa 0,0 l/m² 1,3 km/h (1 Bft) SW 0,00 h 14 W/m² 6,0 °C 8,9 °C 2,5 km/h (1 Bft)
21.02.2024 18:00 21,5 °C 8,8 °C 52 % 80 % 1011,4 hPa 0,0 l/m² 9,6 km/h (2 Bft) S-SO 0,00 h 0 W/m² 5,7 °C 6,6 °C 13,9 km/h (3 Bft)
21.02.2024 19:00 21,4 °C 8,9 °C 53 % 79 % 1010,8 hPa 0,0 l/m² 13,7 km/h (3 Bft) S 0,00 h 0 W/m² 5,5 °C 4,4 °C 18,6 km/h (3 Bft)
21.02.2024 20:00 21,5 °C 8,8 °C 54 % 79 % 1009,9 hPa 0,0 l/m² 13,2 km/h (3 Bft) S-SO 0,00 h 0 W/m² 5,3 °C 4,7 °C 18,9 km/h (3 Bft)
21.02.2024 21:00 21,5 °C 8,8 °C 55 % 77 % 1008,9 hPa 0,0 l/m² 14,4 km/h (3 Bft) S 0,00 h 0 W/m² 5,1 °C 4,0 °C 19,7 km/h (3 Bft)
21.02.2024 22:00 21,4 °C 9,1 °C 55 % 72 % 1008,4 hPa 0,0 l/m² 11,9 km/h (2 Bft) S-SW 0,00 h 0 W/m² 4,4 °C 5,6 °C 15,7 km/h (3 Bft)
21.02.2024 23:00 21,3 °C 8,7 °C 55 % 74 % 1007,2 hPa 0,0 l/m² 7,8 km/h (2 Bft) S-SO 0,00 h 0 W/m² 4,2 °C 7,6 °C 10,7 km/h (2 Bft)
22.02.2024 00:00 21,3 °C 9,5 °C 55 % 69 % 1005,8 hPa 0,0 l/m² 17,3 km/h (3 Bft) S 0,00 h 0 W/m² 4,1 °C 3,9 °C 24,4 km/h (4 Bft)
22.02.2024 01:00 21,3 °C 9,8 °C 55 % 72 % 1004,5 hPa 0,0 l/m² 18,9 km/h (3 Bft) S 0,00 h 0 W/m² 5,0 °C 3,7 °C 27,6 km/h (5 Bft)
22.02.2024 02:00 21,2 °C 9,0 °C 55 % 79 % 1003,3 hPa 0,2 l/m² 17,1 km/h (3 Bft) S 0,00 h 0 W/m² 5,5 °C 3,1 °C 25,3 km/h (4 Bft)
22.02.2024 03:00 21,1 °C 8,3 °C 55 % 84 % 1001,9 hPa 0,4 l/m² 12,1 km/h (2 Bft) S 0,00 h 0 W/m² 5,8 °C 4,5 °C 17,6 km/h (3 Bft)
22.02.2024 04:00 21,1 °C 8,2 °C 55 % 86 % 1000,9 hPa 0,6 l/m² 12,0 km/h (2 Bft) S 0,00 h 0 W/m² 6,0 °C 4,6 °C 17,1 km/h (3 Bft)
22.02.2024 05:00 21,2 °C 7,9 °C 55 % 89 % 1000,0 hPa 0,8 l/m² 8,1 km/h (2 Bft) S-SO 0,00 h 0 W/m² 6,2 °C 6,6 °C 11,8 km/h (2 Bft)
22.02.2024 06:00 21,2 °C 7,9 °C 54 % 90 % 999,2 hPa 0,8 l/m² 6,0 km/h (2 Bft) S-SO 0,00 h 0 W/m² 6,4 °C 7,7 °C 9,0 km/h (2 Bft)
22.02.2024 07:00 21,1 °C 8,0 °C 53 % 92 % 998,3 hPa 0,8 l/m² 5,2 km/h (1 Bft) S-SO 0,00 h 9 W/m² 6,7 °C 7,9 °C 8,7 km/h (2 Bft)
22.02.2024 08:00 21,2 °C 8,3 °C 53 % 92 % 997,6 hPa 0,0 l/m² 4,1 km/h (1 Bft) S-SO 0,10 h 26 W/m² 7,0 °C 8,3 °C 7,3 km/h (2 Bft)
22.02.2024 09:00 21,2 °C 9,3 °C 53 % 90 % 997,0 hPa 0,4 l/m² 11,5 km/h (2 Bft) S-SW 0,98 h 88 W/m² 7,8 °C 6,1 °C 16,0 km/h (3 Bft)
22.02.2024 10:00 21,3 °C 10,6 °C 53 % 87 % 996,4 hPa 0,0 l/m² 15,9 km/h (3 Bft) S-SW 1,02 h 192 W/m² 8,6 °C 5,5 °C 21,8 km/h (4 Bft)
22.02.2024 11:00 21,3 °C 11,1 °C 53 % 86 % 995,9 hPa 0,0 l/m² 13,9 km/h (3 Bft) S-SW 1,00 h 152 W/m² 8,9 °C 7,0 °C 20,1 km/h (4 Bft)
22.02.2024 12:00 21,2 °C 12,0 °C 53 % 83 % 994,6 hPa 0,0 l/m² 18,8 km/h (3 Bft) S-SW 0,98 h 175 W/m² 9,2 °C 6,3 °C 26,0 km/h (4 Bft)
22.02.2024 13:00 21,3 °C 12,0 °C 53 % 82 % 993,3 hPa 0,0 l/m² 15,6 km/h (3 Bft) S 0,87 h 139 W/m² 9,1 °C 7,4 °C 21,4 km/h (4 Bft)
22.02.2024 14:00 21,3 °C 12,3 °C 53 % 82 % 991,7 hPa 0,0 l/m² 14,7 km/h (3 Bft) S 1,00 h 121 W/m² 9,4 °C 8,2 °C 21,7 km/h (4 Bft)
22.02.2024 15:00 21,3 °C 12,7 °C 53 % 81 % 990,6 hPa 0,0 l/m² 18,9 km/h (3 Bft) S 0,77 h 138 W/m² 9,5 °C 7,1 °C 27,3 km/h (5 Bft)
22.02.2024 16:00 21,3 °C 12,3 °C 53 % 83 % 989,5 hPa 0,0 l/m² 14,0 km/h (3 Bft) S 0,23 h 43 W/m² 9,4 °C 8,3 °C 20,1 km/h (4 Bft)
22.02.2024 17:00 21,2 °C 12,1 °C 53 % 83 % 988,5 hPa 0,0 l/m² 16,4 km/h (3 Bft) S-SO 0,00 h 11 W/m² 9,3 °C 7,2 °C 24,0 km/h (4 Bft)
22.02.2024 18:00 21,1 °C 12,1 °C 54 % 83 % 987,7 hPa 0,0 l/m² 19,3 km/h (3 Bft) S 0,00 h 0 W/m² 9,2 °C 6,3 °C 26,3 km/h (4 Bft)
22.02.2024 19:00 21,2 °C 11,9 °C 55 % 83 % 986,8 hPa 0,0 l/m² 19,3 km/h (3 Bft) S-SO 0,00 h 0 W/m² 9,1 °C 6,0 °C 25,6 km/h (4 Bft)
22.02.2024 20:00 21,2 °C 11,5 °C 56 % 85 % 986,1 hPa 0,0 l/m² 19,0 km/h (3 Bft) S-SO 0,00 h 0 W/m² 9,1 °C 5,6 °C 25,7 km/h (4 Bft)
22.02.2024 21:00 21,2 °C 11,2 °C 57 % 86 % 985,2 hPa 0,0 l/m² 20,4 km/h (4 Bft) S-SO 0,00 h 0 W/m² 9,0 °C 4,8 °C 28,4 km/h (5 Bft)
22.02.2024 22:00 21,2 °C 11,3 °C 56 % 85 % 984,9 hPa 0,0 l/m² 12,9 km/h (3 Bft) S-SO 0,00 h 0 W/m² 8,8 °C 7,8 °C 18,3 km/h (3 Bft)
22.02.2024 23:00 21,2 °C 11,9 °C 56 % 81 % 984,6 hPa 0,0 l/m² 26,7 km/h (4 Bft) S 0,00 h 0 W/m² 8,7 °C 4,0 °C 37,5 km/h (5 Bft)
23.02.2024 00:00 21,1 °C 12,2 °C 55 % 75 % 985,5 hPa 0,0 l/m² 30,3 km/h (5 Bft) S-SW 0,00 h 0 W/m² 7,8 °C 3,7 °C 41,7 km/h (6 Bft)
23.02.2024 01:00 21,1 °C 11,5 °C 55 % 73 % 986,5 hPa 0,0 l/m² 29,5 km/h (5 Bft) SW 0,00 h 0 W/m² 6,8 °C 3,0 °C 41,7 km/h (6 Bft)
23.02.2024 02:00 21,0 °C 9,7 °C 55 % 73 % 988,7 hPa 0,0 l/m² 26,0 km/h (4 Bft) SW 0,00 h 0 W/m² 5,2 °C 1,3 °C 36,1 km/h (5 Bft)
23.02.2024 03:00 21,0 °C 9,0 °C 55 % 74 % 990,3 hPa 0,0 l/m² 27,1 km/h (5 Bft) SW 0,00 h 0 W/m² 4,6 °C -0,0 °C 37,7 km/h (5 Bft)
23.02.2024 04:00 21,0 °C 7,7 °C 55 % 79 % 991,5 hPa 0,0 l/m² 20,0 km/h (4 Bft) SW 0,00 h 0 W/m² 4,3 °C 0,4 °C 28,3 km/h (5 Bft)
23.02.2024 05:00 21,0 °C 6,9 °C 55 % 78 % 992,9 hPa 0,0 l/m² 18,8 km/h (3 Bft) SW 0,00 h 0 W/m² 3,3 °C -0,2 °C 25,1 km/h (4 Bft)
23.02.2024 06:00 20,9 °C 6,5 °C 54 % 77 % 994,1 hPa 0,0 l/m² 22,2 km/h (4 Bft) SW 0,00 h 0 W/m² 2,8 °C -1,9 °C 29,7 km/h (5 Bft)
23.02.2024 07:00 20,9 °C 6,0 °C 52 % 77 % 994,8 hPa 0,0 l/m² 25,4 km/h (4 Bft) SW 0,00 h 19 W/m² 2,3 °C -3,7 °C 35,1 km/h (5 Bft)
23.02.2024 08:00 20,9 °C 6,0 °C 52 % 77 % 995,9 hPa 0,0 l/m² 12,6 km/h (3 Bft) S-SW 0,57 h 58 W/m² 2,3 °C 2,0 °C 18,1 km/h (3 Bft)
23.02.2024 09:00 21,0 °C 6,5 °C 52 % 75 % 996,6 hPa 0,0 l/m² 11,8 km/h (2 Bft) SW 0,98 h 134 W/m² 2,4 °C 2,8 °C 16,4 km/h (3 Bft)
23.02.2024 10:00 21,2 °C 7,3 °C 52 % 73 % 997,1 hPa 0,0 l/m² 11,8 km/h (2 Bft) S 1,00 h 192 W/m² 2,7 °C 3,8 °C 17,0 km/h (3 Bft)
23.02.2024 11:00 21,3 °C 7,5 °C 52 % 71 % 997,5 hPa 0,0 l/m² 16,4 km/h (3 Bft) S-SW 1,00 h 206 W/m² 2,6 °C 1,6 °C 22,0 km/h (4 Bft)
23.02.2024 12:00 21,3 °C 7,9 °C 52 % 70 % 997,7 hPa 0,0 l/m² 17,5 km/h (3 Bft) S 1,02 h 227 W/m² 2,8 °C 1,6 °C 24,7 km/h (4 Bft)
23.02.2024 13:00 21,3 °C 8,2 °C 52 % 69 % 997,9 hPa 0,0 l/m² 17,0 km/h (3 Bft) S 0,98 h 234 W/m² 2,8 °C 2,2 °C 24,5 km/h (4 Bft)
23.02.2024 14:00 21,2 °C 8,1 °C 49 % 70 % 998,0 hPa 0,0 l/m² 15,1 km/h (3 Bft) S-SO 1,02 h 150 W/m² 3,0 °C 2,8 °C 20,8 km/h (4 Bft)
23.02.2024 15:00 20,9 °C 8,2 °C 45 % 70 % 998,1 hPa 0,0 l/m² 15,8 km/h (3 Bft) S-SO 1,00 h 132 W/m² 3,1 °C 2,7 °C 20,9 km/h (4 Bft)
23.02.2024 16:00 20,7 °C 7,7 °C 43 % 70 % 998,0 hPa 0,0 l/m² 16,6 km/h (3 Bft) S 0,80 h 65 W/m² 2,6 °C 1,8 °C 22,3 km/h (4 Bft)
23.02.2024 17:00 20,7 °C 7,2 °C 46 % 71 % 998,4 hPa 0,0 l/m² 11,2 km/h (2 Bft) S-SO 0,00 h 20 W/m² 2,3 °C 3,8 °C 15,5 km/h (3 Bft)
23.02.2024 18:00 20,7 °C 6,0 °C 48 % 75 % 998,5 hPa 0,0 l/m² 3,9 km/h (1 Bft) O 0,00 h 0 W/m² 1,8 °C 5,8 °C 5,6 km/h (2 Bft)
23.02.2024 19:00 20,9 °C 5,0 °C 51 % 77 % 998,8 hPa 0,0 l/m² 4,6 km/h (1 Bft) SO 0,00 h 0 W/m² 1,3 °C 4,9 °C 6,3 km/h (2 Bft)
23.02.2024 20:00 21,1 °C 4,4 °C 53 % 78 % 998,9 hPa 0,0 l/m² 1,3 km/h (1 Bft) SO 0,00 h 0 W/m² 0,9 °C 4,4 °C 2,1 km/h (1 Bft)
23.02.2024 21:00 21,4 °C 3,2 °C 54 % 82 % 999,3 hPa 0,0 l/m² 3,1 km/h (1 Bft) SO 0,00 h 0 W/m² 0,4 °C 3,2 °C 4,3 km/h (1 Bft)
23.02.2024 22:00 21,4 °C 2,7 °C 54 % 84 % 999,5 hPa 0,0 l/m² 0,8 km/h (0 Bft) SO 0,00 h 0 W/m² 0,3 °C 2,7 °C 1,7 km/h (1 Bft)
23.02.2024 23:00 21,2 °C 2,3 °C 54 % 84 % 999,3 hPa 0,0 l/m² 0,9 km/h (0 Bft) SO 0,00 h 0 W/m² -0,1 °C 2,3 °C 1,9 km/h (1 Bft)
24.02.2024 00:00 21,1 °C 1,1 °C 54 % 87 % 999,2 hPa 0,0 l/m² 1,0 km/h (0 Bft) SO 0,00 h 0 W/m² -0,8 °C 1,1 °C 2,1 km/h (1 Bft)
24.02.2024 01:00 21,1 °C 1,5 °C 54 % 88 % 999,2 hPa 0,0 l/m² 2,0 km/h (1 Bft) SO 0,00 h 0 W/m² -0,2 °C 1,5 °C 4,2 km/h (1 Bft)
24.02.2024 02:00 21,0 °C 1,8 °C 54 % 86 % 999,2 hPa 0,0 l/m² 0,7 km/h (0 Bft) S 0,00 h 0 W/m² -0,3 °C 1,8 °C 1,9 km/h (1 Bft)
24.02.2024 03:00 20,9 °C 0,7 °C 53 % 87 % 999,2 hPa 0,0 l/m² 2,7 km/h (1 Bft) O-NO 0,00 h 0 W/m² -1,1 °C 0,7 °C 4,7 km/h (1 Bft)
24.02.2024 04:00 21,1 °C -0,0 °C 53 % 89 % 999,5 hPa 0,0 l/m² 4,8 km/h (1 Bft) O-NO 0,00 h 0 W/m² -1,6 °C -0,0 °C 6,1 km/h (2 Bft)
24.02.2024 05:00 21,1 °C -0,2 °C 53 % 91 % 999,7 hPa 0,0 l/m² 3,8 km/h (1 Bft) O-NO 0,00 h 0 W/m² -1,5 °C -0,2 °C 5,9 km/h (2 Bft)
24.02.2024 06:00 21,2 °C -0,4 °C 53 % 91 % 999,9 hPa 0,0 l/m² 0,5 km/h (0 Bft) O-NO 0,00 h 0 W/m² -1,7 °C -0,4 °C 1,2 km/h (1 Bft)
24.02.2024 07:00 21,3 °C -0,5 °C 53 % 92 % 1000,3 hPa 0,0 l/m² 0,6 km/h (0 Bft) O-NO 0,22 h 32 W/m² -1,7 °C -0,5 °C 1,6 km/h (1 Bft)
24.02.2024 08:00 21,3 °C 2,4 °C 53 % 89 % 1001,2 hPa 0,0 l/m² 2,6 km/h (1 Bft) S 0,85 h 142 W/m² 0,7 °C 2,1 °C 4,4 km/h (1 Bft)
24.02.2024 09:00 21,7 °C 4,9 °C 53 % 84 % 1001,6 hPa 0,0 l/m² 6,3 km/h (2 Bft) S-SO 1,00 h 212 W/m² 2,4 °C 4,1 °C 9,5 km/h (2 Bft)
24.02.2024 10:00 22,1 °C 7,2 °C 49 % 79 % 1002,3 hPa 0,0 l/m² 10,8 km/h (2 Bft) S-SW 0,98 h 353 W/m² 3,8 °C 4,0 °C 14,5 km/h (3 Bft)
24.02.2024 11:00 22,1 °C 8,1 °C 48 % 77 % 1003,0 hPa 0,0 l/m² 14,3 km/h (3 Bft) S-SW 1,02 h 299 W/m² 4,2 °C 3,2 °C 18,9 km/h (3 Bft)
24.02.2024 12:00 22,2 °C 9,1 °C 49 % 73 % 1003,3 hPa 0,0 l/m² 15,2 km/h (3 Bft) S 1,00 h 332 W/m² 4,6 °C 4,1 °C 21,3 km/h (4 Bft)
24.02.2024 13:00 22,1 °C 9,0 °C 51 % 71 % 1003,3 hPa 0,0 l/m² 17,2 km/h (3 Bft) S-SO 1,00 h 199 W/m² 4,1 °C 3,1 °C 22,7 km/h (4 Bft)
24.02.2024 14:00 21,8 °C 9,3 °C 51 % 71 % 1003,3 hPa 0,0 l/m² 21,0 km/h (4 Bft) S 1,00 h 245 W/m² 4,4 °C 2,2 °C 30,1 km/h (5 Bft)
24.02.2024 15:00 21,7 °C 9,1 °C 51 % 71 % 1003,8 hPa 0,0 l/m² 22,6 km/h (4 Bft) S 0,98 h 198 W/m² 4,1 °C 1,4 °C 32,2 km/h (5 Bft)
24.02.2024 16:00 21,7 °C 8,3 °C 52 % 70 % 1004,6 hPa 0,0 l/m² 19,1 km/h (3 Bft) S-SW 0,65 h 84 W/m² 3,1 °C 1,5 °C 26,2 km/h (4 Bft)
24.02.2024 17:00 21,5 °C 6,6 °C 52 % 73 % 1005,4 hPa 0,0 l/m² 10,8 km/h (2 Bft) S 0,00 h 16 W/m² 2,0 °C 3,7 °C 14,9 km/h (3 Bft)
24.02.2024 18:00 21,3 °C 4,4 °C 53 % 81 % 1006,1 hPa 0,0 l/m² 2,7 km/h (1 Bft) S-SO 0,00 h 0 W/m² 1,4 °C 4,4 °C 4,9 km/h (1 Bft)
24.02.2024 19:00 21,3 °C 4,1 °C 54 % 79 % 1006,5 hPa 0,0 l/m² 2,6 km/h (1 Bft) S-SO 0,00 h 0 W/m² 0,8 °C 4,1 °C 5,0 km/h (1 Bft)
24.02.2024 20:00 21,0 °C 3,9 °C 44 % 78 % 1006,7 hPa 0,0 l/m² 3,0 km/h (1 Bft) O-SO 0,00 h 0 W/m² 0,4 °C 3,8 °C 5,2 km/h (1 Bft)
24.02.2024 21:00 20,9 °C 3,5 °C 46 % 80 % 1006,7 hPa 0,0 l/m² 6,5 km/h (2 Bft) S-SO 0,00 h 0 W/m² 0,3 °C 3,0 °C 9,3 km/h (2 Bft)
24.02.2024 22:00 21,3 °C 2,9 °C 49 % 83 % 1006,8 hPa 0,0 l/m² 8,1 km/h (2 Bft) S-SO 0,00 h 0 W/m² 0,2 °C 1,3 °C 11,4 km/h (2 Bft)
24.02.2024 23:00 21,1 °C 3,4 °C 50 % 82 % 1006,7 hPa 0,0 l/m² 9,3 km/h (2 Bft) S-SO 0,00 h 0 W/m² 0,7 °C 0,9 °C 12,5 km/h (2 Bft)
25.02.2024 00:00 20,9 °C 2,9 °C 51 % 82 % 1007,7 hPa 0,0 l/m² 1,3 km/h (1 Bft) N 0,00 h 0 W/m² 0,0 °C 2,9 °C 2,3 km/h (1 Bft)
25.02.2024 01:00 20,9 °C 0,7 °C 51 % 87 % 1007,8 hPa 0,0 l/m² 0,6 km/h (0 Bft) N 0,00 h 0 W/m² -1,2 °C 0,7 °C 1,2 km/h (1 Bft)
25.02.2024 02:00 20,9 °C 1,0 °C 51 % 88 % 1007,8 hPa 0,0 l/m² 1,3 km/h (1 Bft) N 0,00 h 0 W/m² -0,8 °C 1,0 °C 2,5 km/h (1 Bft)
25.02.2024 03:00 20,9 °C 0,8 °C 51 % 88 % 1007,3 hPa 0,0 l/m² 0,1 km/h (0 Bft) N 0,00 h 0 W/m² -1,0 °C 0,8 °C 0,4 km/h (0 Bft)
25.02.2024 04:00 21,1 °C 0,1 °C 51 % 88 % 1007,1 hPa 0,0 l/m² 0,0 km/h (0 Bft) N 0,00 h 0 W/m² -1,6 °C 0,1 °C 0,3 km/h (0 Bft)
25.02.2024 05:00 21,1 °C -0,8 °C 51 % 90 % 1007,0 hPa 0,0 l/m² 1,7 km/h (1 Bft) NO 0,00 h 0 W/m² -2,3 °C -0,8 °C 2,6 km/h (1 Bft)
25.02.2024 06:00 21,2 °C -0,8 °C 51 % 91 % 1006,7 hPa 0,0 l/m² 4,5 km/h (1 Bft) O-NO 0,00 h 0 W/m² -2,1 °C -0,8 °C 6,2 km/h (2 Bft)
25.02.2024 07:00 21,2 °C -0,8 °C 51 % 92 % 1006,8 hPa 0,0 l/m² 2,1 km/h (1 Bft) NO 0,00 h 12 W/m² -2,0 °C -0,8 °C 3,3 km/h (1 Bft)
25.02.2024 08:00 21,3 °C 1,1 °C 52 % 91 % 1006,8 hPa 0,0 l/m² 1,8 km/h (1 Bft) O 1,00 h 156 W/m² -0,2 °C 1,1 °C 2,8 km/h (1 Bft)
25.02.2024 09:00 21,8 °C 5,4 °C 51 % 83 % 1006,5 hPa 0,0 l/m² 6,9 km/h (2 Bft) O-SO 0,98 h 319 W/m² 2,7 °C 4,0 °C 10,3 km/h (2 Bft)
25.02.2024 10:00 22,4 °C 7,6 °C 48 % 78 % 1006,1 hPa 0,0 l/m² 13,9 km/h (3 Bft) SO 1,00 h 427 W/m² 4,0 °C 3,0 °C 18,7 km/h (3 Bft)
25.02.2024 11:00 22,4 °C 9,0 °C 47 % 74 % 1005,4 hPa 0,0 l/m² 16,5 km/h (3 Bft) S-SO 1,00 h 396 W/m² 4,6 °C 3,4 °C 22,5 km/h (4 Bft)
25.02.2024 12:00 22,4 °C 10,0 °C 48 % 70 % 1004,9 hPa 0,0 l/m² 18,3 km/h (3 Bft) S-SO 1,02 h 367 W/m² 4,6 °C 3,9 °C 25,7 km/h (4 Bft)
25.02.2024 13:00 22,2 °C 10,0 °C 48 % 67 % 1004,7 hPa 0,0 l/m² 17,1 km/h (3 Bft) S-SW 1,00 h 225 W/m² 4,2 °C 4,4 °C 23,2 km/h (4 Bft)
25.02.2024 14:00 22,1 °C 9,8 °C 49 % 69 % 1004,4 hPa 0,0 l/m² 14,6 km/h (3 Bft) SW 1,00 h 213 W/m² 4,3 °C 5,1 °C 20,4 km/h (4 Bft)
25.02.2024 15:00 21,7 °C 9,5 °C 46 % 68 % 1004,4 hPa 0,0 l/m² 15,2 km/h (3 Bft) S 0,98 h 147 W/m² 3,9 °C 4,5 °C 20,4 km/h (4 Bft)
25.02.2024 16:00 21,7 °C 8,8 °C 48 % 71 % 1004,5 hPa 0,0 l/m² 10,5 km/h (2 Bft) W-SW 0,70 h 76 W/m² 3,9 °C 6,1 °C 14,2 km/h (3 Bft)
25.02.2024 17:00 21,6 °C 7,2 °C 49 % 79 % 1004,4 hPa 0,0 l/m² 1,3 km/h (1 Bft) W-SW 0,00 h 19 W/m² 3,7 °C 7,2 °C 2,1 km/h (1 Bft)
25.02.2024 18:00 21,2 °C 5,8 °C 45 % 82 % 1004,4 hPa 0,0 l/m² 0,2 km/h (0 Bft) W-SW 0,00 h 0 W/m² 3,0 °C 5,8 °C 0,7 km/h (0 Bft)
25.02.2024 19:00 21,3 °C 3,4 °C 50 % 86 % 1004,2 hPa 0,0 l/m² 0,7 km/h (0 Bft) W-SW 0,00 h 0 W/m² 1,3 °C 3,4 °C 1,8 km/h (1 Bft)
25.02.2024 20:00 21,5 °C 1,7 °C 52 % 89 % 1004,0 hPa 0,0 l/m² 0,5 km/h (0 Bft) W-SW 0,00 h 0 W/m² -0,0 °C 1,7 °C 1,0 km/h (0 Bft)
25.02.2024 21:00 21,8 °C 1,1 °C 52 % 91 % 1003,9 hPa 0,0 l/m² 0,0 km/h (0 Bft) W-SW 0,00 h 0 W/m² -0,2 °C 1,1 °C 0,0 km/h (0 Bft)
25.02.2024 22:00 21,8 °C 1,3 °C 52 % 91 % 1003,9 hPa 0,0 l/m² 1,0 km/h (0 Bft) W-SW 0,00 h 0 W/m² 0,1 °C 1,3 °C 1,7 km/h (1 Bft)
25.02.2024 23:00 21,5 °C 1,0 °C 52 % 92 % 1003,8 hPa 0,0 l/m² 0,0 km/h (0 Bft) W-SW 0,00 h 0 W/m² -0,2 °C 1,0 °C 0,0 km/h (0 Bft)
Min-Datum _ 24.02.24 25.02.24 24.02.24 25.02.24 22.02.24 - 25.02.24 - - - 25.02.24 23.02.24 25.02.24
_ Min-Zeit 20:40 08:02 20:36 13:01 23:06 - 23:01 - - - 05:23 07:41 23:03
Minimum _ 20,7 °C -1,1 °C 37 % 64 % 984,4 hPa - 0,0 km/h (0 Bft) - - - -2,6 °C -4,9 °C 0,0 km/h (0 Bft)
Max-Datum _ 25.02.24 22.02.24 22.02.24 25.02.24 20.02.24 19.02.24 23.02.24 - 19.02.24 25.02.24 22.02.24 22.02.24 19.02.24
_ Max-Zeit 10:38 15:18 21:00 08:07 11:18 05:09 01:00 - 14:48 12:57 15:20 22:35 07:15
Maximum _ 22,6 °C 13,2 °C 57 % 93 % 1026,0 hPa 1,6 l/m² 41,3 km/h
SW (6 Bft)
- 0,10 h 645 W/m² 10,0 °C 11,3 °C 59,5 km/h
W (7 Bft)
Durchschnitt _ 21,4 °C 7,4 °C 53 % 81 % 1008,5 hPa #6,0 l/m² 12,5 km/h (2 Bft) SW #56:07 h 74 W/m² 4,4 °C 3,6 °C 17,5 km/h (3 Bft)
© 2009 Mathias Hoßbach